sensor_id;sensor_type;location;lat;lon;timestamp;pressure;altitude;pressure_sealevel;temperature;humidity
63115;BME280;49208;50.874;6.466;2023-06-22T06:03:26;100548.72;;;21.83;68.78
63115;BME280;49208;50.874;6.466;2023-06-22T06:05:53;100555.13;;;22.04;68.51
63115;BME280;49208;50.874;6.466;2023-06-22T06:08:19;100551.75;;;22.12;67.18
63115;BME280;49208;50.874;6.466;2023-06-22T06:10:44;100551.25;;;22.18;66.99
63115;BME280;49208;50.874;6.466;2023-06-22T06:13:09;100559.16;;;22.21;67.40
63115;BME280;49208;50.874;6.466;2023-06-22T06:15:35;100551.50;;;22.26;66.75
63115;BME280;49208;50.874;6.466;2023-06-22T06:18:00;100561.38;;;22.27;66.04
63115;BME280;49208;50.874;6.466;2023-06-22T06:20:27;100567.16;;;22.34;65.84
63115;BME280;49208;50.874;6.466;2023-06-22T06:22:53;100569.34;;;22.40;66.39
63115;BME280;49208;50.874;6.466;2023-06-22T06:25:18;100571.03;;;22.52;65.90
63115;BME280;49208;50.874;6.466;2023-06-22T06:27:49;100569.53;;;22.59;65.98
63115;BME280;49208;50.874;6.466;2023-06-22T06:30:16;100562.59;;;22.67;65.87
63115;BME280;49208;50.874;6.466;2023-06-22T06:32:43;100558.88;;;22.68;64.59
63115;BME280;49208;50.874;6.466;2023-06-22T06:35:11;100553.22;;;22.71;64.18
63115;BME280;49208;50.874;6.466;2023-06-22T06:37:41;100552.09;;;22.73;64.07
63115;BME280;49208;50.874;6.466;2023-06-22T06:40:08;100549.09;;;22.76;63.80
63115;BME280;49208;50.874;6.466;2023-06-22T06:42:43;100546.25;;;22.78;62.90
63115;BME280;49208;50.874;6.466;2023-06-22T06:45:16;100551.78;;;22.88;63.24
63115;BME280;49208;50.874;6.466;2023-06-22T06:47:42;100546.13;;;23.00;63.11
63115;BME280;49208;50.874;6.466;2023-06-22T06:50:08;100542.72;;;23.19;62.84
63115;BME280;49208;50.874;6.466;2023-06-22T06:52:34;100541.09;;;23.38;62.49
63115;BME280;49208;50.874;6.466;2023-06-22T06:54:59;100538.44;;;23.48;61.37
63115;BME280;49208;50.874;6.466;2023-06-22T06:57:25;100537.75;;;23.76;61.86
63115;BME280;49208;50.874;6.466;2023-06-22T06:59:55;100532.69;;;24.12;60.23
63115;BME280;49208;50.874;6.466;2023-06-22T07:02:21;100527.00;;;24.45;58.79
63115;BME280;49208;50.874;6.466;2023-06-22T07:04:47;100529.75;;;24.64;57.85
63115;BME280;49208;50.874;6.466;2023-06-22T07:07:12;100531.00;;;24.89;56.62
63115;BME280;49208;50.874;6.466;2023-06-22T07:09:37;100518.06;;;25.30;56.95
63115;BME280;49208;50.874;6.466;2023-06-22T07:12:03;100510.94;;;26.12;55.47
63115;BME280;49208;50.874;6.466;2023-06-22T07:14:28;100493.72;;;27.10;51.96
63115;BME280;49208;50.874;6.466;2023-06-22T07:16:54;100498.97;;;27.90;48.47
63115;BME280;49208;50.874;6.466;2023-06-22T07:19:26;100504.03;;;28.44;47.71
63115;BME280;49208;50.874;6.466;2023-06-22T07:21:53;100492.25;;;28.84;46.13
63115;BME280;49208;50.874;6.466;2023-06-22T07:24:19;100489.25;;;29.43;45.84
63115;BME280;49208;50.874;6.466;2023-06-22T07:26:45;100473.94;;;29.96;44.39
63115;BME280;49208;50.874;6.466;2023-06-22T07:29:11;100471.34;;;30.72;43.18
63115;BME280;49208;50.874;6.466;2023-06-22T07:31:37;100476.28;;;30.77;42.86
63115;BME280;49208;50.874;6.466;2023-06-22T07:34:02;100477.16;;;30.31;43.40
63115;BME280;49208;50.874;6.466;2023-06-22T07:36:29;100471.09;;;29.81;44.72
63115;BME280;49208;50.874;6.466;2023-06-22T07:38:55;100474.00;;;30.42;45.18
63115;BME280;49208;50.874;6.466;2023-06-22T07:41:20;100474.66;;;31.20;43.54
63115;BME280;49208;50.874;6.466;2023-06-22T07:43:46;100471.94;;;31.65;40.84
63115;BME280;49208;50.874;6.466;2023-06-22T07:46:11;100467.41;;;32.09;40.87
63115;BME280;49208;50.874;6.466;2023-06-22T07:48:37;100457.19;;;31.73;41.07
63115;BME280;49208;50.874;6.466;2023-06-22T07:51:03;100454.44;;;31.88;40.54
63115;BME280;49208;50.874;6.466;2023-06-22T07:53:28;100448.69;;;32.04;41.33
63115;BME280;49208;50.874;6.466;2023-06-22T07:55:54;100448.53;;;32.27;41.49
63115;BME280;49208;50.874;6.466;2023-06-22T07:58:19;100441.56;;;32.10;41.31
63115;BME280;49208;50.874;6.466;2023-06-22T08:00:46;100433.13;;;32.11;40.33
63115;BME280;49208;50.874;6.466;2023-06-22T08:03:11;100435.03;;;31.59;40.73
63115;BME280;49208;50.874;6.466;2023-06-22T08:05:37;100434.66;;;31.48;41.91
63115;BME280;49208;50.874;6.466;2023-06-22T08:08:02;100434.09;;;31.22;41.81
63115;BME280;49208;50.874;6.466;2023-06-22T08:10:28;100435.97;;;30.69;42.75
63115;BME280;49208;50.874;6.466;2023-06-22T08:12:53;100428.06;;;30.74;44.45
63115;BME280;49208;50.874;6.466;2023-06-22T08:15:18;100424.41;;;30.97;44.13
63115;BME280;49208;50.874;6.466;2023-06-22T08:17:44;100413.03;;;31.15;42.76
63115;BME280;49208;50.874;6.466;2023-06-22T08:20:10;100409.81;;;31.11;43.55
63115;BME280;49208;50.874;6.466;2023-06-22T08:22:37;100403.34;;;30.89;43.38
63115;BME280;49208;50.874;6.466;2023-06-22T08:25:04;100402.13;;;30.92;43.08
63115;BME280;49208;50.874;6.466;2023-06-22T08:27:30;100394.44;;;31.02;42.39
63115;BME280;49208;50.874;6.466;2023-06-22T08:29:59;100392.00;;;31.07;43.68
63115;BME280;49208;50.874;6.466;2023-06-22T08:32:26;100384.47;;;30.86;43.98
63115;BME280;49208;50.874;6.466;2023-06-22T08:34:56;100391.28;;;30.37;45.78
63115;BME280;49208;50.874;6.466;2023-06-22T08:37:21;100415.44;;;30.19;45.94
63115;BME280;49208;50.874;6.466;2023-06-22T08:39:50;100416.97;;;29.98;46.78
63115;BME280;49208;50.874;6.466;2023-06-22T08:42:15;100420.06;;;29.64;46.51
63115;BME280;49208;50.874;6.466;2023-06-22T08:44:41;100405.34;;;29.17;46.73
63115;BME280;49208;50.874;6.466;2023-06-22T08:47:06;100410.94;;;28.68;48.09
63115;BME280;49208;50.874;6.466;2023-06-22T08:49:32;100405.66;;;28.50;49.83
63115;BME280;49208;50.874;6.466;2023-06-22T08:51:57;100409.41;;;28.57;49.89
63115;BME280;49208;50.874;6.466;2023-06-22T08:54:22;100399.44;;;28.81;49.31
63115;BME280;49208;50.874;6.466;2023-06-22T08:56:48;100388.41;;;29.06;49.29
63115;BME280;49208;50.874;6.466;2023-06-22T08:59:14;100382.00;;;29.61;49.54
63115;BME280;49208;50.874;6.466;2023-06-22T09:01:39;100382.94;;;30.08;48.70
63115;BME280;49208;50.874;6.466;2023-06-22T09:04:04;100389.56;;;30.59;48.96
63115;BME280;49208;50.874;6.466;2023-06-22T09:06:31;100385.41;;;30.78;45.78
63115;BME280;49208;50.874;6.466;2023-06-22T09:08:57;100380.00;;;30.70;45.24
63115;BME280;49208;50.874;6.466;2023-06-22T09:11:25;100372.50;;;30.26;46.18
63115;BME280;49208;50.874;6.466;2023-06-22T09:13:50;100364.88;;;30.36;47.60
63115;BME280;49208;50.874;6.466;2023-06-22T09:16:17;100360.84;;;30.62;46.76
63115;BME280;49208;50.874;6.466;2023-06-22T09:18:42;100356.00;;;30.64;46.57
63115;BME280;49208;50.874;6.466;2023-06-22T09:21:07;100347.84;;;30.56;46.42
63115;BME280;49208;50.874;6.466;2023-06-22T09:23:33;100339.59;;;30.41;46.37
63115;BME280;49208;50.874;6.466;2023-06-22T09:25:58;100336.59;;;30.51;46.57
63115;BME280;49208;50.874;6.466;2023-06-22T09:28:24;100329.13;;;30.74;47.17
63115;BME280;49208;50.874;6.466;2023-06-22T09:30:49;100337.19;;;31.06;46.11
63115;BME280;49208;50.874;6.466;2023-06-22T09:33:14;100341.13;;;30.73;45.28
63115;BME280;49208;50.874;6.466;2023-06-22T09:35:40;100344.91;;;30.42;46.17
63115;BME280;49208;50.874;6.466;2023-06-22T09:38:05;100344.34;;;30.09;47.41
63115;BME280;49208;50.874;6.466;2023-06-22T09:40:31;100336.19;;;29.70;48.24
63115;BME280;49208;50.874;6.466;2023-06-22T09:43:00;100342.84;;;29.44;49.29
63115;BME280;49208;50.874;6.466;2023-06-22T09:45:25;100342.16;;;29.11;50.52
63115;BME280;49208;50.874;6.466;2023-06-22T09:47:51;100349.28;;;28.80;51.09
63115;BME280;49208;50.874;6.466;2023-06-22T09:50:16;100355.50;;;28.41;51.87
63115;BME280;49208;50.874;6.466;2023-06-22T09:52:41;100358.38;;;27.91;53.52
63115;BME280;49208;50.874;6.466;2023-06-22T09:55:09;100362.91;;;27.57;54.78
63115;BME280;49208;50.874;6.466;2023-06-22T09:57:35;100389.13;;;27.26;55.44
63115;BME280;49208;50.874;6.466;2023-06-22T10:00:00;100403.63;;;26.92;56.19
63115;BME280;49208;50.874;6.466;2023-06-22T10:02:25;100428.34;;;26.64;56.84
63115;BME280;49208;50.874;6.466;2023-06-22T10:04:51;100428.13;;;26.39;58.74
63115;BME280;49208;50.874;6.466;2023-06-22T10:07:16;100433.75;;;26.20;59.52
63115;BME280;49208;50.874;6.466;2023-06-22T10:09:41;100448.97;;;26.05;63.02
63115;BME280;49208;50.874;6.466;2023-06-22T10:12:07;100443.03;;;25.81;70.26
63115;BME280;49208;50.874;6.466;2023-06-22T10:14:32;100443.06;;;25.54;68.68
63115;BME280;49208;50.874;6.466;2023-06-22T10:16:58;100459.00;;;25.21;76.05
63115;BME280;49208;50.874;6.466;2023-06-22T10:19:23;100463.66;;;24.91;77.37
63115;BME280;49208;50.874;6.466;2023-06-22T10:21:49;100460.41;;;24.68;81.30
63115;BME280;49208;50.874;6.466;2023-06-22T10:24:14;100475.31;;;24.45;82.67
63115;BME280;49208;50.874;6.466;2023-06-22T10:26:39;100471.56;;;24.26;84.08
63115;BME280;49208;50.874;6.466;2023-06-22T10:29:05;100480.16;;;24.12;83.25
63115;BME280;49208;50.874;6.466;2023-06-22T10:31:30;100481.00;;;23.93;87.08
63115;BME280;49208;50.874;6.466;2023-06-22T10:33:57;100483.22;;;23.78;87.68
63115;BME280;49208;50.874;6.466;2023-06-22T10:36:22;100486.03;;;23.67;91.09
63115;BME280;49208;50.874;6.466;2023-06-22T10:38:48;100484.41;;;23.54;91.46
63115;BME280;49208;50.874;6.466;2023-06-22T10:41:14;100473.38;;;23.46;91.85
63115;BME280;49208;50.874;6.466;2023-06-22T10:43:40;100469.16;;;23.32;91.91
63115;BME280;49208;50.874;6.466;2023-06-22T10:46:06;100459.25;;;23.22;92.87
63115;BME280;49208;50.874;6.466;2023-06-22T10:48:32;100453.19;;;23.08;93.46
63115;BME280;49208;50.874;6.466;2023-06-22T10:50:57;100434.22;;;22.97;93.31
63115;BME280;49208;50.874;6.466;2023-06-22T10:53:22;100434.03;;;22.89;94.39
63115;BME280;49208;50.874;6.466;2023-06-22T10:55:48;100429.31;;;22.81;98.90
63115;BME280;49208;50.874;6.466;2023-06-22T10:58:13;100419.09;;;22.73;99.83
63115;BME280;49208;50.874;6.466;2023-06-22T11:00:38;100405.94;;;22.69;99.98
63115;BME280;49208;50.874;6.466;2023-06-22T11:03:04;100389.91;;;22.66;100.00
63115;BME280;49208;50.874;6.466;2023-06-22T11:05:29;100355.06;;;22.61;100.00
63115;BME280;49208;50.874;6.466;2023-06-22T11:07:54;100310.59;;;22.52;100.00
63115;BME280;49208;50.874;6.466;2023-06-22T11:10:20;100258.16;;;22.42;100.00
63115;BME280;49208;50.874;6.466;2023-06-22T11:12:45;100237.25;;;22.23;100.00
63115;BME280;49208;50.874;6.466;2023-06-22T11:15:11;100288.41;;;22.16;100.00
63115;BME280;49208;50.874;6.466;2023-06-22T11:17:36;100327.56;;;22.24;100.00
63115;BME280;49208;50.874;6.466;2023-06-22T11:20:02;100300.84;;;22.40;100.00
63115;BME280;49208;50.874;6.466;2023-06-22T11:22:30;100279.00;;;22.72;100.00
63115;BME280;49208;50.874;6.466;2023-06-22T11:24:58;100280.69;;;23.04;100.00
63115;BME280;49208;50.874;6.466;2023-06-22T11:27:24;100291.47;;;23.45;100.00
63115;BME280;49208;50.874;6.466;2023-06-22T11:29:49;100286.66;;;23.87;100.00
63115;BME280;49208;50.874;6.466;2023-06-22T11:32:15;100281.75;;;24.20;98.39
63115;BME280;49208;50.874;6.466;2023-06-22T11:34:40;100267.63;;;24.81;99.77
63115;BME280;49208;50.874;6.466;2023-06-22T11:37:06;100268.66;;;25.36;94.79
63115;BME280;49208;50.874;6.466;2023-06-22T11:39:31;100266.66;;;25.46;89.65
63115;BME280;49208;50.874;6.466;2023-06-22T11:41:56;100259.59;;;25.53;86.21
63115;BME280;49208;50.874;6.466;2023-06-22T11:44:22;100257.88;;;25.34;86.29
63115;BME280;49208;50.874;6.466;2023-06-22T11:46:47;100264.28;;;25.43;88.32
63115;BME280;49208;50.874;6.466;2023-06-22T11:49:13;100262.94;;;25.29;87.31
63115;BME280;49208;50.874;6.466;2023-06-22T11:51:39;100266.28;;;25.23;88.19
63115;BME280;49208;50.874;6.466;2023-06-22T11:54:04;100269.88;;;25.24;89.33
63115;BME280;49208;50.874;6.466;2023-06-22T11:56:29;100263.25;;;25.26;89.17
63115;BME280;49208;50.874;6.466;2023-06-22T11:58:55;100259.13;;;25.22;86.52
63115;BME280;49208;50.874;6.466;2023-06-22T12:01:20;100258.28;;;25.22;88.36
63115;BME280;49208;50.874;6.466;2023-06-22T12:03:46;100240.75;;;25.24;89.47
63115;BME280;49208;50.874;6.466;2023-06-22T12:06:11;100235.59;;;25.21;87.36
63115;BME280;49208;50.874;6.466;2023-06-22T12:08:37;100234.38;;;25.33;87.02
63115;BME280;49208;50.874;6.466;2023-06-22T12:11:02;100234.13;;;25.27;86.41
63115;BME280;49208;50.874;6.466;2023-06-22T12:13:28;100235.69;;;25.29;88.27
63115;BME280;49208;50.874;6.466;2023-06-22T12:15:53;100230.09;;;25.31;86.69
63115;BME280;49208;50.874;6.466;2023-06-22T12:18:18;100225.50;;;25.31;86.91
63115;BME280;49208;50.874;6.466;2023-06-22T12:20:46;100230.59;;;25.16;84.67
63115;BME280;49208;50.874;6.466;2023-06-22T12:23:12;100239.53;;;25.09;85.71
63115;BME280;49208;50.874;6.466;2023-06-22T12:25:37;100238.66;;;24.90;88.37
63115;BME280;49208;50.874;6.466;2023-06-22T12:28:03;100238.00;;;24.78;89.00
63115;BME280;49208;50.874;6.466;2023-06-22T12:30:30;100220.41;;;24.73;90.33
63115;BME280;49208;50.874;6.466;2023-06-22T12:32:55;100208.66;;;24.72;88.82
63115;BME280;49208;50.874;6.466;2023-06-22T12:35:21;100205.91;;;24.82;89.11
63115;BME280;49208;50.874;6.466;2023-06-22T12:37:46;100209.47;;;24.83;88.17
63115;BME280;49208;50.874;6.466;2023-06-22T12:40:12;100198.97;;;24.88;88.55
63115;BME280;49208;50.874;6.466;2023-06-22T12:42:37;100202.38;;;24.90;89.00
63115;BME280;49208;50.874;6.466;2023-06-22T12:45:03;100192.84;;;25.04;89.19
63115;BME280;49208;50.874;6.466;2023-06-22T12:47:29;100189.59;;;25.18;89.31
63115;BME280;49208;50.874;6.466;2023-06-22T12:49:54;100194.94;;;25.10;85.91
63115;BME280;49208;50.874;6.466;2023-06-22T12:52:20;100189.44;;;25.19;87.10
63115;BME280;49208;50.874;6.466;2023-06-22T12:54:45;100179.78;;;25.07;86.60
63115;BME280;49208;50.874;6.466;2023-06-22T12:57:10;100177.06;;;25.07;87.61
63115;BME280;49208;50.874;6.466;2023-06-22T12:59:36;100177.41;;;24.94;87.67
63115;BME280;49208;50.874;6.466;2023-06-22T13:02:01;100179.00;;;24.97;87.73
63115;BME280;49208;50.874;6.466;2023-06-22T13:04:26;100172.66;;;24.96;88.39
63115;BME280;49208;50.874;6.466;2023-06-22T13:06:52;100169.56;;;24.91;88.44
63115;BME280;49208;50.874;6.466;2023-06-22T13:09:18;100174.88;;;24.93;88.25
63115;BME280;49208;50.874;6.466;2023-06-22T13:11:44;100169.94;;;24.78;86.63
63115;BME280;49208;50.874;6.466;2023-06-22T13:14:09;100174.28;;;24.71;87.33
63115;BME280;49208;50.874;6.466;2023-06-22T13:16:35;100168.06;;;24.79;88.21
63115;BME280;49208;50.874;6.466;2023-06-22T13:19:00;100159.16;;;24.87;88.19
63115;BME280;49208;50.874;6.466;2023-06-22T13:21:25;100160.31;;;24.84;88.11
63115;BME280;49208;50.874;6.466;2023-06-22T13:23:51;100160.00;;;24.87;88.56
63115;BME280;49208;50.874;6.466;2023-06-22T13:26:16;100155.22;;;24.71;87.55
63115;BME280;49208;50.874;6.466;2023-06-22T13:28:41;100158.91;;;24.52;88.13
63115;BME280;49208;50.874;6.466;2023-06-22T13:31:07;100150.97;;;24.31;89.89
63115;BME280;49208;50.874;6.466;2023-06-22T13:33:32;100134.88;;;24.20;90.99
63115;BME280;49208;50.874;6.466;2023-06-22T13:35:58;100120.38;;;24.19;92.49
63115;BME280;49208;50.874;6.466;2023-06-22T13:38:23;100115.06;;;24.28;93.14
63115;BME280;49208;50.874;6.466;2023-06-22T13:40:49;100129.53;;;24.28;92.50
63115;BME280;49208;50.874;6.466;2023-06-22T13:43:14;100124.09;;;24.28;92.39
63115;BME280;49208;50.874;6.466;2023-06-22T13:45:41;100112.91;;;24.31;92.65
63115;BME280;49208;50.874;6.466;2023-06-22T13:48:07;100100.56;;;24.37;92.64
63115;BME280;49208;50.874;6.466;2023-06-22T13:50:32;100094.09;;;24.38;93.60
63115;BME280;49208;50.874;6.466;2023-06-22T13:52:58;100079.59;;;24.47;92.20
63115;BME280;49208;50.874;6.466;2023-06-22T13:55:23;100070.88;;;24.44;92.48
63115;BME280;49208;50.874;6.466;2023-06-22T13:57:49;100063.88;;;24.41;91.54
63115;BME280;49208;50.874;6.466;2023-06-22T14:00:15;100062.00;;;24.41;92.07
63115;BME280;49208;50.874;6.466;2023-06-22T14:02:40;100047.16;;;24.36;91.93
63115;BME280;49208;50.874;6.466;2023-06-22T14:05:07;100029.41;;;24.32;92.15
63115;BME280;49208;50.874;6.466;2023-06-22T14:07:32;100023.59;;;24.27;92.14
63115;BME280;49208;50.874;6.466;2023-06-22T14:09:58;100023.19;;;24.21;91.33
63115;BME280;49208;50.874;6.466;2023-06-22T14:12:24;100023.78;;;24.15;92.61
63115;BME280;49208;50.874;6.466;2023-06-22T14:14:49;100008.72;;;24.03;91.50
63115;BME280;49208;50.874;6.466;2023-06-22T14:17:14;99990.13;;;23.98;91.73
63115;BME280;49208;50.874;6.466;2023-06-22T14:19:40;99980.13;;;23.99;92.31
63115;BME280;49208;50.874;6.466;2023-06-22T14:22:05;99995.56;;;23.98;92.58
63115;BME280;49208;50.874;6.466;2023-06-22T14:24:31;100001.38;;;23.86;91.94
63115;BME280;49208;50.874;6.466;2023-06-22T14:26:56;100011.41;;;23.75;92.38
63115;BME280;49208;50.874;6.466;2023-06-22T14:29:22;100005.72;;;23.69;93.62
63115;BME280;49208;50.874;6.466;2023-06-22T14:31:48;100001.94;;;23.52;94.77
63115;BME280;49208;50.874;6.466;2023-06-22T14:34:14;99982.94;;;23.42;95.64
63115;BME280;49208;50.874;6.466;2023-06-22T14:36:40;99978.00;;;23.28;96.78
63115;BME280;49208;50.874;6.466;2023-06-22T14:39:05;99985.75;;;23.23;97.31
63115;BME280;49208;50.874;6.466;2023-06-22T14:41:31;99969.91;;;23.18;98.09
63115;BME280;49208;50.874;6.466;2023-06-22T14:43:56;99944.88;;;23.14;98.81
63115;BME280;49208;50.874;6.466;2023-06-22T14:46:22;99936.31;;;23.09;99.56
63115;BME280;49208;50.874;6.466;2023-06-22T14:48:48;99916.78;;;23.06;100.00
63115;BME280;49208;50.874;6.466;2023-06-22T14:51:13;99914.19;;;23.04;100.00
63115;BME280;49208;50.874;6.466;2023-06-22T14:53:39;99924.75;;;22.97;100.00
63115;BME280;49208;50.874;6.466;2023-06-22T14:56:05;99934.59;;;22.98;100.00
63115;BME280;49208;50.874;6.466;2023-06-22T14:58:31;99949.34;;;22.96;100.00
63115;BME280;49208;50.874;6.466;2023-06-22T15:01:01;99950.06;;;22.88;100.00
63115;BME280;49208;50.874;6.466;2023-06-22T15:03:26;99958.78;;;22.82;100.00
63115;BME280;49208;50.874;6.466;2023-06-22T15:05:54;99952.25;;;22.75;100.00
63115;BME280;49208;50.874;6.466;2023-06-22T15:08:20;99940.22;;;22.68;100.00
63115;BME280;49208;50.874;6.466;2023-06-22T15:10:45;99918.25;;;22.61;100.00
63115;BME280;49208;50.874;6.466;2023-06-22T15:13:11;99892.72;;;22.44;100.00
63115;BME280;49208;50.874;6.466;2023-06-22T15:15:36;99867.94;;;22.29;100.00
63115;BME280;49208;50.874;6.466;2023-06-22T15:18:01;99848.63;;;22.13;100.00
63115;BME280;49208;50.874;6.466;2023-06-22T15:20:27;99833.97;;;21.96;100.00
63115;BME280;49208;50.874;6.466;2023-06-22T15:22:52;99813.56;;;21.82;100.00
63115;BME280;49208;50.874;6.466;2023-06-22T15:25:18;99831.25;;;21.67;100.00
63115;BME280;49208;50.874;6.466;2023-06-22T15:27:43;99875.13;;;21.61;100.00
63115;BME280;49208;50.874;6.466;2023-06-22T15:30:09;99860.56;;;21.52;100.00
63115;BME280;49208;50.874;6.466;2023-06-22T15:32:34;99862.13;;;21.45;100.00
63115;BME280;49208;50.874;6.466;2023-06-22T15:35:00;99854.22;;;21.32;100.00
63115;BME280;49208;50.874;6.466;2023-06-22T15:37:25;99829.94;;;21.20;100.00
63115;BME280;49208;50.874;6.466;2023-06-22T15:39:50;99822.69;;;21.11;100.00
63115;BME280;49208;50.874;6.466;2023-06-22T15:42:18;99803.56;;;21.03;100.00
63115;BME280;49208;50.874;6.466;2023-06-22T15:44:43;99792.56;;;20.95;100.00
63115;BME280;49208;50.874;6.466;2023-06-22T15:47:09;99842.13;;;20.95;100.00
63115;BME280;49208;50.874;6.466;2023-06-22T15:49:34;99911.91;;;20.92;100.00
63115;BME280;49208;50.874;6.466;2023-06-22T15:51:59;99954.91;;;20.95;100.00
63115;BME280;49208;50.874;6.466;2023-06-22T15:54:25;99955.63;;;20.97;100.00
63115;BME280;49208;50.874;6.466;2023-06-22T15:56:50;99944.81;;;20.97;100.00
63115;BME280;49208;50.874;6.466;2023-06-22T15:59:16;99938.28;;;20.99;100.00
63115;BME280;49208;50.874;6.466;2023-06-22T16:01:42;99940.25;;;20.97;100.00
63115;BME280;49208;50.874;6.466;2023-06-22T16:04:07;99922.19;;;20.98;100.00
63115;BME280;49208;50.874;6.466;2023-06-22T16:06:33;99925.44;;;20.92;100.00
63115;BME280;49208;50.874;6.466;2023-06-22T16:08:58;99916.53;;;20.80;100.00
63115;BME280;49208;50.874;6.466;2023-06-22T16:11:24;99923.06;;;20.77;100.00
63115;BME280;49208;50.874;6.466;2023-06-22T16:13:49;99915.19;;;20.74;100.00
63115;BME280;49208;50.874;6.466;2023-06-22T16:16:14;99906.38;;;20.72;100.00
63115;BME280;49208;50.874;6.466;2023-06-22T16:18:42;99906.13;;;20.75;100.00
63115;BME280;49208;50.874;6.466;2023-06-22T16:21:07;99893.44;;;20.76;100.00
63115;BME280;49208;50.874;6.466;2023-06-22T16:23:32;99894.88;;;20.80;100.00
63115;BME280;49208;50.874;6.466;2023-06-22T16:25:58;99903.31;;;20.87;100.00
63115;BME280;49208;50.874;6.466;2023-06-22T16:28:23;99906.22;;;20.95;100.00
63115;BME280;49208;50.874;6.466;2023-06-22T16:30:48;99896.53;;;21.02;100.00
63115;BME280;49208;50.874;6.466;2023-06-22T16:33:14;99888.75;;;21.09;100.00
63115;BME280;49208;50.874;6.466;2023-06-22T16:35:40;99887.50;;;21.13;100.00
63115;BME280;49208;50.874;6.466;2023-06-22T16:38:06;99888.22;;;21.15;100.00
63115;BME280;49208;50.874;6.466;2023-06-22T16:40:32;99889.06;;;21.15;100.00
63115;BME280;49208;50.874;6.466;2023-06-22T16:42:58;99883.06;;;21.12;100.00
63115;BME280;49208;50.874;6.466;2023-06-22T16:45:23;99883.06;;;21.12;100.00
63115;BME280;49208;50.874;6.466;2023-06-22T16:47:50;99888.06;;;21.16;100.00
63115;BME280;49208;50.874;6.466;2023-06-22T16:50:17;99885.94;;;21.20;100.00
63115;BME280;49208;50.874;6.466;2023-06-22T16:52:42;99886.41;;;21.25;100.00
63115;BME280;49208;50.874;6.466;2023-06-22T16:55:10;99876.84;;;21.31;100.00
63115;BME280;49208;50.874;6.466;2023-06-22T16:57:36;99875.34;;;21.38;100.00
63115;BME280;49208;50.874;6.466;2023-06-22T17:00:02;99867.66;;;21.43;100.00
63115;BME280;49208;50.874;6.466;2023-06-22T17:02:29;99868.78;;;21.40;100.00
63115;BME280;49208;50.874;6.466;2023-06-22T17:04:57;99863.50;;;21.39;100.00
63115;BME280;49208;50.874;6.466;2023-06-22T17:07:25;99854.38;;;21.40;100.00
63115;BME280;49208;50.874;6.466;2023-06-22T17:09:51;99868.78;;;21.40;100.00
63115;BME280;49208;50.874;6.466;2023-06-22T17:12:17;99881.56;;;21.29;100.00
63115;BME280;49208;50.874;6.466;2023-06-22T17:14:48;99884.50;;;21.16;100.00
63115;BME280;49208;50.874;6.466;2023-06-22T17:17:17;99881.91;;;21.05;100.00
63115;BME280;49208;50.874;6.466;2023-06-22T17:19:43;99887.41;;;20.93;100.00
63115;BME280;49208;50.874;6.466;2023-06-22T17:22:10;99887.22;;;20.85;100.00
63115;BME280;49208;50.874;6.466;2023-06-22T17:24:36;99895.84;;;20.79;100.00
63115;BME280;49208;50.874;6.466;2023-06-22T17:27:02;99895.09;;;20.67;100.00
63115;BME280;49208;50.874;6.466;2023-06-22T17:29:29;99906.56;;;20.59;100.00
63115;BME280;49208;50.874;6.466;2023-06-22T17:31:58;99900.81;;;20.53;100.00
63115;BME280;49208;50.874;6.466;2023-06-22T17:34:27;99903.84;;;20.38;100.00
63115;BME280;49208;50.874;6.466;2023-06-22T17:36:56;99908.91;;;20.32;100.00
63115;BME280;49208;50.874;6.466;2023-06-22T17:39:25;99895.19;;;20.24;100.00
63115;BME280;49208;50.874;6.466;2023-06-22T17:41:52;99895.09;;;20.14;100.00
63115;BME280;49208;50.874;6.466;2023-06-22T17:44:22;99896.34;;;20.10;100.00
63115;BME280;49208;50.874;6.466;2023-06-22T17:46:52;99905.81;;;20.04;100.00
63115;BME280;49208;50.874;6.466;2023-06-22T17:49:18;99907.94;;;20.01;100.00
63115;BME280;49208;50.874;6.466;2023-06-22T17:51:44;99907.56;;;19.94;100.00
63115;BME280;49208;50.874;6.466;2023-06-22T17:54:11;99907.00;;;19.90;100.00
63115;BME280;49208;50.874;6.466;2023-06-22T17:56:36;99912.91;;;19.84;100.00
63115;BME280;49208;50.874;6.466;2023-06-22T17:59:02;99914.38;;;19.77;100.00
63115;BME280;49208;50.874;6.466;2023-06-22T18:03:53;99938.06;;;19.62;100.00
63115;BME280;49208;50.874;6.466;2023-06-22T18:06:19;99942.00;;;19.58;100.00
63115;BME280;49208;50.874;6.466;2023-06-22T18:08:46;99941.88;;;19.48;100.00
63115;BME280;49208;50.874;6.466;2023-06-22T18:11:14;99955.53;;;19.47;100.00
63115;BME280;49208;50.874;6.466;2023-06-22T18:13:40;99955.88;;;19.42;100.00
63115;BME280;49208;50.874;6.466;2023-06-22T18:16:07;99953.81;;;19.34;100.00
63115;BME280;49208;50.874;6.466;2023-06-22T18:18:33;99957.13;;;19.27;100.00
63115;BME280;49208;50.874;6.466;2023-06-22T18:21:00;99970.13;;;19.22;100.00
63115;BME280;49208;50.874;6.466;2023-06-22T18:23:28;99974.28;;;19.14;100.00
63115;BME280;49208;50.874;6.466;2023-06-22T18:26:03;99966.03;;;19.05;100.00
63115;BME280;49208;50.874;6.466;2023-06-22T18:28:29;99973.13;;;18.94;100.00
63115;BME280;49208;50.874;6.466;2023-06-22T18:30:55;99958.31;;;18.89;100.00
63115;BME280;49208;50.874;6.466;2023-06-22T18:33:21;99974.22;;;18.81;100.00
63115;BME280;49208;50.874;6.466;2023-06-22T18:35:49;99978.56;;;18.70;100.00
63115;BME280;49208;50.874;6.466;2023-06-22T18:38:16;99985.53;;;18.62;100.00
63115;BME280;49208;50.874;6.466;2023-06-22T18:40:51;99982.78;;;18.50;100.00
63115;BME280;49208;50.874;6.466;2023-06-22T18:43:23;99994.03;;;18.44;100.00
63115;BME280;49208;50.874;6.466;2023-06-22T18:45:48;100007.97;;;18.38;100.00
63115;BME280;49208;50.874;6.466;2023-06-22T18:48:22;100023.63;;;18.33;100.00